Home > Products > Valid Products > MTR

000
SAGM31 PGUM 061055
MTRGUM
METAR PGUM 061054Z 07013KT 10SM FEW022 SCT042 28/24 A2994 RMK AO2
RAB18E29 SLP129 P0001 T02780239 $





000
SAGM31 PGUM 060955
MTRGUM
METAR PGUM 060954Z 07009KT 10SM FEW020 SCT046 BKN055 28/23 A2993 RMK
AO2 RAB32E42 SLP125 P0000 T02830228 $





000
SAGM31 PGUM 060955
MTRGUM
METAR PGUM 060954Z 07009KT 10SM FEW020 SCT046 BKN055 28/23 A2993 RMK
AO2 RAB32E42 SLP125 P0000 T02830228 $





000
SAGM31 PGUM 060855
MTRGUM
METAR PGUM 060854Z 08012KT 10SM SCT020 SCT025 29/23 A2990 RMK AO2
SLP118 60000 T02890233 53007 $





000
SAGM31 PGUM 060855
MTRGUM
METAR PGUM 060854Z 08012KT 10SM SCT020 SCT025 29/23 A2990 RMK AO2
SLP118 60000 T02890233 53007 $





000
SAGM31 PGUM 060835
MTRGUM
SPECI PGUM 060834Z 08013G21KT 10SM FEW017 SCT023 SCT049 29/24 A2990
RMK AO2 $





000
SAGM31 PGUM 060819
MTRGUM
SPECI PGUM 060819Z 08012KT 10SM SCT019 BKN025 BKN049 29/24 A2989 RMK
AO2 $





000
SAGM31 PGUM 060819
MTRGUM
SPECI PGUM 060819Z 08012KT 10SM SCT019 BKN025 BKN049 29/24 A2989 RMK
AO2 $





000
SAGM31 PGUM 060754
MTRGUM
METAR PGUM 060754Z 08013G20KT 10SM SCT021 SCT027 BKN034 29/24 A2989
RMK AO2 RAB12E25 SLP112 P0000 T02940239 $





000
SAGM31 PGUM 060654
MTRGUM
METAR PGUM 060654Z 09015G21KT 10SM FEW025 30/23 A2988 RMK AO2 SLP109
T03000228 $





000
SAGM31 PGUM 060554
MTRGUM
METAR PGUM 060554Z 09014KT 10SM SCT023 SCT027 30/23 A2988 RMK AO2
SLP110 60000 T03000233 10306 20294 56015 $





000
SAGM31 PGUM 060537
MTRGUM
SPECI PGUM 060536Z 08012G20KT 10SM SCT021 SCT027 30/23 A2988 RMK AO2
$





000
SAGM31 PGUM 060501
MTRGUM
SPECI PGUM 060501Z 10015G21KT 10SM BKN023 30/23 A2988 RMK AO2 $





000
SAGM31 PGUM 060455
MTRGUM
METAR PGUM 060454Z 08015G21KT 10SM SCT023 SCT028 30/23 A2988 RMK AO2
SLP111 T03000228 $





000
SAGM31 PGUM 060455
MTRGUM
METAR PGUM 060454Z 08015G21KT 10SM SCT023 SCT028 30/23 A2988 RMK AO2
SLP111 T03000228 $





000
SAGM31 PGUM 060410
MTRGUM
SPECI PGUM 060409Z 09016G21KT 10SM SCT023 31/23 A2989 RMK AO2 $





000
SAGM31 PGUM 060355
MTRGUM
METAR PGUM 060354Z 09015KT 10SM BKN021 BKN033 30/23 A2990 RMK AO2
SLP118 T03000233 $





000
SAGM31 PGUM 060332
MTRGUM
SPECI PGUM 060332Z 08012G23KT 10SM BKN025 31/23 A2991 RMK AO2 $





000
SAGM31 PGUM 060254
MTRGUM
METAR PGUM 060254Z 07012G21KT 10SM FEW019 SCT025 BKN034 31/24 A2993
RMK AO2 SLP125 60000 T03060239 58016 $





000
SAGM31 PGUM 060254
MTRGUM
METAR PGUM 060254Z 07012G21KT 10SM FEW019 SCT025 BKN034 31/24 A2993
RMK AO2 SLP125 60000 T03060239 58016 $





000
SAGM31 PGUM 060154
MTRGUM
METAR PGUM 060154Z 10015G20KT 10SM SCT024 30/23 A2995 RMK AO2 SLP134
T03000233 $





000
SAGM31 PGUM 060143
MTRGUM
SPECI PGUM 060142Z 10014G22KT 10SM SCT024 30/23 A2996 RMK AO2 $





000
SAGM31 PGUM 060119
MTRGUM
SPECI PGUM 060119Z 08014G20KT 10SM BKN026 31/23 A2996 RMK AO2 $





000
SAGM31 PGUM 060119
MTRGUM
SPECI PGUM 060119Z 08014G20KT 10SM BKN026 31/23 A2996 RMK AO2 $





000
SAGM31 PGUM 060055
MTRGUM
METAR PGUM 060054Z 08017KT 10SM SCT023 SCT031 31/23 A2997 RMK AO2
RAE2357 SLP139 P0000 T03060228 $





000
SAGM31 PGUM 060055
MTRGUM
METAR PGUM 060054Z 08017KT 10SM SCT023 SCT031 31/23 A2997 RMK AO2
RAE2357 SLP139 P0000 T03060228 $





000
SAGM31 PGUM 060018
MTRGUM
SPECI PGUM 060017Z 07018KT 10SM SCT019 31/23 A2997 RMK AO2 RAE2357
P0000 $





000
SAGM31 PGUM 060018
MTRGUM
SPECI PGUM 060017Z 07018KT 10SM SCT019 31/23 A2997 RMK AO2 RAE2357
P0000 $





000
SAGM31 PGUM 052355
MTRGUM
METAR PGUM 052354Z 09010KT 10SM -RA BKN019 BKN026 29/24 A2997 RMK
AO2 RAB46 SLP142 P0000 60000 T02890244 10300 20272 51008 $





000
SAGM31 PGUM 052355
MTRGUM
METAR PGUM 052354Z 09010KT 10SM -RA BKN019 BKN026 29/24 A2997 RMK
AO2 RAB46 SLP142 P0000 60000 T02890244 10300 20272 51008 $





000
SAGM31 PGUM 052325
MTRGUM
SPECI PGUM 052325Z 09013KT 10SM FEW021 SCT025 SCT031 30/23 A2998 RMK
AO2 $





000
SAGM31 PGUM 052325
MTRGUM
SPECI PGUM 052325Z 09013KT 10SM FEW021 SCT025 SCT031 30/23 A2998 RMK
AO2 $





000
SAGM31 PGUM 052254
MTRGUM
METAR PGUM 052254Z 08011G18KT 10SM BKN021 30/23 A2997 RMK AO2 SLP142
T03000233 $





000
SAGM31 PGUM 052154
MTRGUM
METAR PGUM 052154Z 08012KT 10SM FEW021 SCT029 SCT034 29/24 A2996 RMK
AO2 SLP138 T02890239 $





000
SAGM31 PGUM 052055
MTRGUM
METAR PGUM 052054Z 08009KT 10SM CLR 28/23 A2995 RMK AO2 SLP134
T02780233 53015 $





000
SAGM31 PGUM 051954
MTRGUM
METAR PGUM 051954Z 09009KT 10SM CLR 28/23 A2993 RMK AO2 SLP127
T02780233 $





000
SAGM31 PGUM 051854
MTRGUM
METAR PGUM 051854Z 08008KT 10SM FEW021 28/23 A2992 RMK AO2 SLP123
T02780233 $





000
SAGM31 PGUM 051854
MTRGUM
METAR PGUM 051854Z 08008KT 10SM FEW021 28/23 A2992 RMK AO2 SLP123
T02780233 $





000
SAGM31 PGUM 051755
MTRGUM
METAR PGUM 051754Z 10009KT 10SM FEW045 28/23 A2991 RMK AO2 SLP119
60009 T02780233 10283 20256 56011 $





000
SAGM31 PGUM 051755
MTRGUM
METAR PGUM 051754Z 10009KT 10SM FEW045 28/23 A2991 RMK AO2 SLP119
60009 T02780233 10283 20256 56011 $





000
SAGM31 PGUM 051654
MTRGUM
METAR PGUM 051654Z 09009KT 10SM FEW017 28/24 A2991 RMK AO2 SLP120
T02780239 $





000
SAGM31 PGUM 051654
MTRGUM
METAR PGUM 051654Z 09009KT 10SM FEW017 28/24 A2991 RMK AO2 SLP120
T02780239 $





000
SAGM31 PGUM 051555
MTRGUM
METAR PGUM 051554Z 09009KT 10SM FEW024 28/24 A2992 RMK AO2 SLP124
T02780239 $





000
SAGM31 PGUM 051455
MTRGUM
METAR PGUM 051454Z 09009KT 10SM FEW021 SCT031 BKN060 28/24 A2994 RMK
AO2 SLP130 60009 T02780244 58011 $





000
SAGM31 PGUM 051354
MTRGUM
METAR PGUM 051354Z 09007KT 10SM FEW022 BKN100 28/24 A2996 RMK AO2
RAE19 SLP137 P0002 T02780244 403170244 $





000
SAGM31 PGUM 051255
MTRGUM
METAR PGUM 051254Z 11013G18KT 4SM +RA BR FEW014 BKN033 OVC048 26/23
A2998 RMK AO2 RAB35 SLP144 P0007 T02560233 $





000
SAGM31 PGUM 051255
MTRGUM
METAR PGUM 051254Z 11013G18KT 4SM +RA BR FEW014 BKN033 OVC048 26/23
A2998 RMK AO2 RAB35 SLP144 P0007 T02560233 $





000
SAGM31 PGUM 051242
MTRGUM
SPECI PGUM 051241Z 12011G20KT 6SM RA BKN012 BKN025 BKN090 26/23
A2998 RMK AO2 RAB35 P0000 $





000
SAGM31 PGUM 051242
MTRGUM
SPECI PGUM 051241Z 12011G20KT 6SM RA BKN012 BKN025 BKN090 26/23
A2998 RMK AO2 RAB35 P0000 $





000
SAGM31 PGUM 051155
MTRGUM
METAR PGUM 051154Z 09010G19KT 10SM FEW013 SCT021 BKN030 28/24 A2997
RMK AO2 SLP141 60000 T02830239 10306 20278 51021 $





000
SAGM31 PGUM 051155
MTRGUM
METAR PGUM 051154Z 09010G19KT 10SM FEW013 SCT021 BKN030 28/24 A2997
RMK AO2 SLP141 60000 T02830239 10306 20278 51021 $





000
SAGM31 PGUM 051055
MTRGUM
METAR PGUM 051054Z 10010KT 10SM FEW023 29/24 A2995 RMK AO2 SLP134
T02890239 $





000
SAGM31 PGUM 051055
MTRGUM
METAR PGUM 051054Z 10010KT 10SM FEW023 29/24 A2995 RMK AO2 SLP134
T02890239 $





000
SAGM31 PGUM 050955
MTRGUM
METAR PGUM 050954Z 10011KT 10SM FEW019 29/24 A2993 RMK AO2 SLP127
T02890244 $





000
SAGM31 PGUM 050854
MTRGUM
METAR PGUM 050854Z 09011KT 10SM FEW020 28/24 A2991 RMK AO2 RAB42E52
SLP120 P0000 60000 T02830239 53010





000
SAGM31 PGUM 050854
MTRGUM
METAR PGUM 050854Z 09011KT 10SM FEW020 28/24 A2991 RMK AO2 RAB42E52
SLP120 P0000 60000 T02830239 53010





000
SAGM31 PGUM 050755
MTRGUM
METAR PGUM 050754Z 10010KT 10SM FEW019 29/24 A2989 RMK AO2 SLP114
T02940239





000
SAGM31 PGUM 050755
MTRGUM
METAR PGUM 050754Z 10010KT 10SM FEW019 29/24 A2989 RMK AO2 SLP114
T02940239





000
SAGM31 PGUM 050655
MTRGUM
METAR PGUM 050654Z 10013G19KT 10SM FEW019 30/24 A2988 RMK AO2 SLP108
T03000239





000
SAGM31 PGUM 050554
MTRGUM
METAR PGUM 050554Z 11012G20KT 10SM SCT020 31/24 A2988 RMK AO2 SLP109
T03060239 10317 20294 55012





000
SAGM31 PGUM 050531
MTRGUM
SPECI PGUM 050530Z 09014G19KT 10SM BKN021 BKN027 31/24 A2988 RMK AO2





000
SAGM31 PGUM 050531
MTRGUM
SPECI PGUM 050530Z 09014G19KT 10SM BKN021 BKN027 31/24 A2988 RMK AO2





000
SAGM31 PGUM 050455
MTRGUM
METAR PGUM 050454Z 11011G18KT 10SM SCT021 31/24 A2988 RMK AO2 SLP109
T03060244





000
SAGM31 PGUM 050355
MTRGUM
METAR PGUM 050354Z 09014G19KT 10SM FEW019 SCT028 31/24 A2990 RMK AO2
SLP116 T03110239





000
SAGM31 PGUM 050346
MTRGUM
SPECI PGUM 050345Z 09014G20KT 10SM SCT021 31/24 A2990 RMK AO2





000
SAGM31 PGUM 050336
MTRGUM
SPECI PGUM 050335Z 10013G21KT 10SM SCT021 BKN028 31/24 A2990 RMK AO2





000
SAGM31 PGUM 050255
MTRGUM
METAR PGUM 050254Z 11010G18KT 10SM SCT025 31/24 A2992 RMK AO2 SLP122
T03110239 58011





000
SAGM31 PGUM 050155
MTRGUM
METAR PGUM 050154Z 11010G17KT 10SM BKN021 31/24 A2994 RMK AO2 SLP129
T03060239





000
SAGM31 PGUM 050151
MTRGUM
SPECI PGUM 050150Z 12011G18KT 10SM BKN021 31/23 A2994 RMK AO2





000
SAGM31 PGUM 050055
MTRGUM
METAR PGUM 050054Z 12011G17KT 10SM SCT021 31/23 A2995 RMK AO2 SLP133
T03060233





000
SAGM31 PGUM 042355
MTRGUM
METAR PGUM 042354Z 10012KT 10SM FEW019 30/23 A2996 RMK AO2 SLP139
T03000233 10306 20261 50006





000
SAGM31 PGUM 042355
MTRGUM
METAR PGUM 042354Z 10012KT 10SM FEW019 30/23 A2996 RMK AO2 SLP139
T03000233 10306 20261 50006





000
SAGM31 PGUM 042255
MTRGUM
METAR PGUM 042254Z 12010KT 10SM FEW018 29/23 A2997 RMK AO2 SLP140
T02890233





000
SAGM31 PGUM 042255
MTRGUM
METAR PGUM 042254Z 12010KT 10SM FEW018 29/23 A2997 RMK AO2 SLP140
T02890233





000
SAGM31 PGUM 042155
MTRGUM
METAR PGUM 042154Z 12010KT 10SM SCT015 29/24 A2996 RMK AO2 SLP137
T02890244





000
SAGM31 PGUM 042140
MTRGUM
SPECI PGUM 042140Z 11007KT 10SM BKN015 28/24 A2996 RMK AO2





000
SAGM31 PGUM 042055
MTRGUM
METAR PGUM 042054Z 09005KT 10SM CLR 27/24 A2995 RMK AO2 SLP133
T02720239 53009





000
SAGM31 PGUM 042055
MTRGUM
METAR PGUM 042054Z 09005KT 10SM CLR 27/24 A2995 RMK AO2 SLP133
T02720239 53009





000
SAGM31 PGUM 041954
MTRGUM
METAR PGUM 041954Z 09003KT 10SM CLR 27/23 A2993 RMK AO2 SLP128
T02670233





000
SAGM31 PGUM 041855
MTRGUM
METAR PGUM 041854Z 05003KT 10SM FEW025 27/24 A2992 RMK AO2 SLP125
T02670239





000
SAGM31 PGUM 041754
MTRGUM
METAR PGUM 041754Z 00000KT 10SM CLR 26/23 A2992 RMK AO2 SLP123
T02610233 10278 20244 55008





000
SAGM31 PGUM 041754
MTRGUM
METAR PGUM 041754Z 00000KT 10SM CLR 26/23 A2992 RMK AO2 SLP123
T02610233 10278 20244 55008





000
SAGM31 PGUM 041655
MTRGUM
METAR PGUM 041654Z 00000KT 10SM FEW015 24/22 A2992 RMK AO2 SLP122
T02440222





000
SAGM31 PGUM 041555
MTRGUM
METAR PGUM 041554Z 05004KT 10SM CLR 27/23 A2993 RMK AO2 SLP128
T02670233





000
SAGM31 PGUM 041455
MTRGUM
METAR PGUM 041454Z 00000KT 10SM CLR 27/23 A2994 RMK AO2 SLP131
T02670233 58010





000
SAGM31 PGUM 041355
MTRGUM
METAR PGUM 041354Z 06004KT 10SM CLR 27/23 A2996 RMK AO2 SLP137
T02720233 403220261





000
SAGM31 PGUM 041355
MTRGUM
METAR PGUM 041354Z 06004KT 10SM CLR 27/23 A2996 RMK AO2 SLP137
T02720233 403220261





000
SAGM31 PGUM 041254
MTRGUM
METAR PGUM 041254Z 07004KT 10SM CLR 28/23 A2997 RMK AO2 SLP139
T02780233





000
SAGM31 PGUM 041254
MTRGUM
METAR PGUM 041254Z 07004KT 10SM CLR 28/23 A2997 RMK AO2 SLP139
T02780233





000
SAGM31 PGUM 041155
MTRGUM
METAR PGUM 041154Z 08008KT 10SM CLR 28/23 A2997 RMK AO2 SLP141 70001
T02780228 10306 20278 51016





000
SAGM31 PGUM 041054
MTRGUM
METAR PGUM 041054Z 08007KT 10SM CLR 28/23 A2996 RMK AO2 SLP137
T02830228





000
SAGM31 PGUM 041054
MTRGUM
METAR PGUM 041054Z 08007KT 10SM CLR 28/23 A2996 RMK AO2 SLP137
T02830228





000
SAGM31 PGUM 040955
MTRGUM
METAR PGUM 040954Z 08008KT 10SM FEW025 28/23 A2994 RMK AO2 SLP132
T02830228





000
SAGM31 PGUM 040855
MTRGUM
METAR PGUM 040854Z 08008KT 10SM FEW019 28/23 A2992 RMK AO2 SLP124
T02830233 53016





000
SAGM31 PGUM 040755
MTRGUM
METAR PGUM 040754Z 08010KT 10SM FEW024 29/23 A2990 RMK AO2 SLP117
T02940228





000
SAGM31 PGUM 040655
MTRGUM
METAR PGUM 040654Z 09014G19KT 10SM FEW021 SCT027 BKN049 30/23 A2989
RMK AO2 SLP112 T03000228





000
SAGM31 PGUM 040630
MTRGUM
SPECI PGUM 040630Z 09013KT 10SM FEW022 SCT028 BKN049 29/23 A2988 RMK
AO2





000
SAGM31 PGUM 040623
MTRGUM
SPECI PGUM 040623Z 10011KT 10SM SCT023 BKN028 BKN039 29/23 A2988 RMK
AO2





000
SAGM31 PGUM 040555
MTRGUM
METAR PGUM 040554Z 10012KT 10SM SCT032 31/23 A2988 RMK AO2 SLP108
T03110233 10322 20300 55009





000
SAGM31 PGUM 040555
MTRGUM
METAR PGUM 040554Z 10012KT 10SM SCT032 31/23 A2988 RMK AO2 SLP108
T03110233 10322 20300 55009





000
SAGM31 PGUM 040455
MTRGUM
METAR PGUM 040454Z 08011KT 10SM FEW032 31/22 A2988 RMK AO2 SLP108
T03110222





000
SAGM31 PGUM 040355
MTRGUM
METAR PGUM 040354Z 08011G18KT 10SM FEW030 32/22 A2988 RMK AO2 SLP110
T03170217





000
SAGM31 PGUM 040257
MTRGUM
METAR PGUM 040254Z COR 10012KT 10SM SCT029 31/22 A2990 RMK AO2
SLP118 T03110222 57022





000
SAGM31 PGUM 040257
MTRGUM
METAR PGUM 040254Z COR 10012KT 10SM SCT029 31/22 A2990 RMK AO2
SLP118 T03110222 57022





000
SAGM31 PGUM 040255
MTRGUM
METAR PGUM 040254Z 10012KT 10SM FEW029 31/22 A2990 RMK AO2 SLP118
T03110222 57022





000
SAGM31 PGUM 040154
MTRGUM
METAR PGUM 040154Z 10013G20KT 10SM FEW027 31/22 A2993 RMK AO2 SLP126
T03110222





000
SAGM31 PGUM 040154
MTRGUM
METAR PGUM 040154Z 10013G20KT 10SM FEW027 31/22 A2993 RMK AO2 SLP126
T03110222





000
SAGM31 PGUM 040054
MTRGUM
METAR PGUM 040054Z 09014G18KT 10SM SCT027 32/22 A2994 RMK AO2 SLP131
T03170222





000
SAGM31 PGUM 032355
MTRGUM
METAR PGUM 032354Z 07013G20KT 10SM FEW028 31/22 A2997 RMK AO2 SLP139
T03110222 10311 20261 50001 $





000
SAGM31 PGUM 032355
MTRGUM
METAR PGUM 032354Z 07013G20KT 10SM FEW028 31/22 A2997 RMK AO2 SLP139
T03110222 10311 20261 50001 $





000
SAGM31 PGUM 032255
MTRGUM
METAR PGUM 032254Z 07014KT 10SM FEW020 30/22 A2998 RMK AO2 SLP145
T03000222 $





000
SAGM31 PGUM 032255
MTRGUM
METAR PGUM 032254Z 07014KT 10SM FEW020 30/22 A2998 RMK AO2 SLP145
T03000222 $





000
SAGM31 PGUM 032154
MTRGUM
METAR PGUM 032154Z 06012KT 10SM CLR 29/22 A2998 RMK AO2 SLP143
T02940222 $





000
SAGM31 PGUM 032154
MTRGUM
METAR PGUM 032154Z 06012KT 10SM CLR 29/22 A2998 RMK AO2 SLP143
T02940222 $





000
SAGM31 PGUM 032055
MTRGUM
METAR PGUM 032054Z 06007KT 10SM CLR 28/23 A2996 RMK AO2 SLP138
T02780228 53012 $





000
SAGM31 PGUM 031954
MTRGUM
METAR PGUM 031954Z 06005KT 10SM CLR 27/23 A2995 RMK AO2 SLP133
T02670228 $





000
SAGM31 PGUM 031854
MTRGUM
METAR PGUM 031854Z 07005KT 10SM FEW020 27/23 A2993 RMK AO2 SLP129
T02720228 $





000
SAGM31 PGUM 031854
MTRGUM
METAR PGUM 031854Z 07005KT 10SM FEW020 27/23 A2993 RMK AO2 SLP129
T02720228 $





000
SAGM31 PGUM 031754
MTRGUM
METAR PGUM 031754Z 07004KT 10SM CLR 27/23 A2993 RMK AO2 SLP126 60000
T02720228 10278 20272 55003 $





000
SAGM31 PGUM 031655
MTRGUM
METAR PGUM 031654Z 08007KT 10SM FEW023 27/23 A2993 RMK AO2 RAE05
SLP126 P0000 T02720228 $





000
SAGM31 PGUM 031655
MTRGUM
METAR PGUM 031654Z 08007KT 10SM FEW023 27/23 A2993 RMK AO2 RAE05
SLP126 P0000 T02720228 $





000
SAGM31 PGUM 031555
MTRGUM
METAR PGUM 031554Z 09009KT 10SM -RA FEW024 28/23 A2993 RMK AO2 RAB54
SLP128 P0000 T02780228 $





000
SAGM31 PGUM 031455
MTRGUM
METAR PGUM 031454Z 08008KT 10SM FEW020 28/23 A2994 RMK AO2 SLP130
60000 T02780233 58007 $





000
SAGM31 PGUM 031355
MTRGUM
METAR PGUM 031354Z 09008KT 10SM FEW017 27/23 A2995 RMK AO2 SLP134
T02720228 403110256 $





000
SAGM31 PGUM 031255
MTRGUM
METAR PGUM 031254Z 09009KT 10SM FEW017 27/24 A2996 RMK AO2 RAB04E16
SLP137 P0000 T02720239 $





000
SAGM31 PGUM 031255
MTRGUM
METAR PGUM 031254Z 09009KT 10SM FEW017 27/24 A2996 RMK AO2 RAB04E16
SLP137 P0000 T02720239 $





000
SAGM31 PGUM 031155
MTRGUM
METAR PGUM 031154Z 08008KT 10SM FEW017 SCT024 28/24 A2996 RMK AO2
RAE09 SLP137 60001 70021 T02780244 10306 20272 51018 $





000
SAGM31 PGUM 031155
MTRGUM
METAR PGUM 031154Z 08008KT 10SM FEW017 SCT024 28/24 A2996 RMK AO2
RAE09 SLP137 60001 70021 T02780244 10306 20272 51018 $





    US Dept of Commerce
    National Oceanic and Atmospheric Administration
    National Weather Service
    1325 East West Highway
    Silver Spring, MD 20910
    Page Author: NWS Internet Services Team
Disclaimer
Information Quality
Credits
Glossary
Privacy Policy
Freedom of Information Act (FOIA)
About Us
Career Opportunities